Terminal Aerodrome Forecast
Issued by NWS

Home | Current Version | Previous Version | Text Only | Print | Product List | Glossary On
Versions: 1 2 3 4 5 6 7 8 9 10 11 12 13 14 15 16 17 18 19 20 21 22 23
000
FTUS43 KEAX 310500
TAFSTJ
TAF
KSTJ 310521Z 3106/0106 VRB03KT P6SM SKC
      TEMPO 3110/3113 3SM BR
     FM311500 18013G25KT P6SM SCT050
     FM010400 18015KT P6SM VCTS BKN050CB=

USA.gov is the U.S. government's official web portal to all federal, state and local government web resources and services.